sensor_id;sensor_type;location;lat;lon;timestamp;temperature;humidity
52107;DHT22;38105;52.968;5.974;2024-02-14T00:01:23;6.80;99.90
52107;DHT22;38105;52.968;5.974;2024-02-14T00:03:49;6.90;99.90
52107;DHT22;38105;52.968;5.974;2024-02-14T00:06:15;6.30;99.90
52107;DHT22;38105;52.968;5.974;2024-02-14T00:08:40;7.10;99.90
52107;DHT22;38105;52.968;5.974;2024-02-14T00:11:06;6.60;99.90
52107;DHT22;38105;52.968;5.974;2024-02-14T00:13:32;6.30;99.90
52107;DHT22;38105;52.968;5.974;2024-02-14T00:16:02;6.90;99.90
52107;DHT22;38105;52.968;5.974;2024-02-14T00:18:28;6.30;99.90
52107;DHT22;38105;52.968;5.974;2024-02-14T00:20:54;6.80;99.90
52107;DHT22;38105;52.968;5.974;2024-02-14T00:23:20;6.80;99.90
52107;DHT22;38105;52.968;5.974;2024-02-14T00:25:48;6.30;99.90
52107;DHT22;38105;52.968;5.974;2024-02-14T00:28:14;6.70;99.90
52107;DHT22;38105;52.968;5.974;2024-02-14T00:30:40;6.30;99.90
52107;DHT22;38105;52.968;5.974;2024-02-14T00:33:06;7.00;99.90
52107;DHT22;38105;52.968;5.974;2024-02-14T00:35:35;6.40;99.90
52107;DHT22;38105;52.968;5.974;2024-02-14T00:38:01;6.40;99.90
52107;DHT22;38105;52.968;5.974;2024-02-14T00:40:26;7.10;99.90
52107;DHT22;38105;52.968;5.974;2024-02-14T00:42:52;7.10;99.90
52107;DHT22;38105;52.968;5.974;2024-02-14T00:45:18;7.10;99.90
52107;DHT22;38105;52.968;5.974;2024-02-14T00:47:46;6.60;99.90
52107;DHT22;38105;52.968;5.974;2024-02-14T00:50:12;7.10;99.90
52107;DHT22;38105;52.968;5.974;2024-02-14T00:52:42;7.20;99.90
52107;DHT22;38105;52.968;5.974;2024-02-14T00:55:08;6.80;99.90
52107;DHT22;38105;52.968;5.974;2024-02-14T00:57:34;7.00;99.90
52107;DHT22;38105;52.968;5.974;2024-02-14T01:00:00;7.30;99.90
52107;DHT22;38105;52.968;5.974;2024-02-14T01:02:28;6.70;99.90
52107;DHT22;38105;52.968;5.974;2024-02-14T01:04:55;6.80;99.90
52107;DHT22;38105;52.968;5.974;2024-02-14T01:07:21;7.70;99.90
52107;DHT22;38105;52.968;5.974;2024-02-14T01:09:46;7.30;99.90
52107;DHT22;38105;52.968;5.974;2024-02-14T01:12:15;6.70;99.90
52107;DHT22;38105;52.968;5.974;2024-02-14T01:14:40;6.80;99.90
52107;DHT22;38105;52.968;5.974;2024-02-14T01:17:07;7.30;99.90
52107;DHT22;38105;52.968;5.974;2024-02-14T01:19:33;6.80;99.90
52107;DHT22;38105;52.968;5.974;2024-02-14T01:22:04;6.90;99.90
52107;DHT22;38105;52.968;5.974;2024-02-14T01:24:30;7.00;99.90
52107;DHT22;38105;52.968;5.974;2024-02-14T01:26:59;7.00;99.90
52107;DHT22;38105;52.968;5.974;2024-02-14T01:29:25;7.30;99.90
52107;DHT22;38105;52.968;5.974;2024-02-14T01:31:50;6.90;99.90
52107;DHT22;38105;52.968;5.974;2024-02-14T01:34:16;7.60;99.90
52107;DHT22;38105;52.968;5.974;2024-02-14T01:36:42;7.60;99.90
52107;DHT22;38105;52.968;5.974;2024-02-14T01:39:07;7.60;99.90
52107;DHT22;38105;52.968;5.974;2024-02-14T01:41:46;7.00;99.90
52107;DHT22;38105;52.968;5.974;2024-02-14T01:44:14;7.00;99.90
52107;DHT22;38105;52.968;5.974;2024-02-14T01:46:39;7.70;99.90
52107;DHT22;38105;52.968;5.974;2024-02-14T01:49:05;7.50;99.90
52107;DHT22;38105;52.968;5.974;2024-02-14T01:51:36;7.10;99.90
52107;DHT22;38105;52.968;5.974;2024-02-14T01:54:02;7.20;99.90
52107;DHT22;38105;52.968;5.974;2024-02-14T01:56:29;7.90;99.90
52107;DHT22;38105;52.968;5.974;2024-02-14T01:58:55;7.70;99.90
52107;DHT22;38105;52.968;5.974;2024-02-14T02:01:21;7.80;99.90
52107;DHT22;38105;52.968;5.974;2024-02-14T02:03:49;7.80;99.90
52107;DHT22;38105;52.968;5.974;2024-02-14T02:06:14;7.60;99.90
52107;DHT22;38105;52.968;5.974;2024-02-14T02:08:45;7.40;99.90
52107;DHT22;38105;52.968;5.974;2024-02-14T02:11:16;7.60;99.90
52107;DHT22;38105;52.968;5.974;2024-02-14T02:13:45;7.40;99.90
52107;DHT22;38105;52.968;5.974;2024-02-14T02:16:11;8.00;99.90
52107;DHT22;38105;52.968;5.974;2024-02-14T02:18:40;7.90;99.90
52107;DHT22;38105;52.968;5.974;2024-02-14T02:21:06;7.80;99.90
52107;DHT22;38105;52.968;5.974;2024-02-14T02:23:35;7.30;99.90
52107;DHT22;38105;52.968;5.974;2024-02-14T02:26:01;7.90;99.90
52107;DHT22;38105;52.968;5.974;2024-02-14T02:28:27;7.40;99.90
52107;DHT22;38105;52.968;5.974;2024-02-14T02:30:53;7.60;99.90
52107;DHT22;38105;52.968;5.974;2024-02-14T02:33:21;8.10;99.90
52107;DHT22;38105;52.968;5.974;2024-02-14T02:35:53;7.70;99.90
52107;DHT22;38105;52.968;5.974;2024-02-14T02:38:19;7.60;99.90
52107;DHT22;38105;52.968;5.974;2024-02-14T02:40:45;8.30;99.90
52107;DHT22;38105;52.968;5.974;2024-02-14T02:43:16;7.60;99.90
52107;DHT22;38105;52.968;5.974;2024-02-14T02:45:42;7.60;99.90
52107;DHT22;38105;52.968;5.974;2024-02-14T02:48:10;8.30;99.90
52107;DHT22;38105;52.968;5.974;2024-02-14T02:50:36;7.70;99.90
52107;DHT22;38105;52.968;5.974;2024-02-14T02:53:02;8.50;99.90
52107;DHT22;38105;52.968;5.974;2024-02-14T02:55:27;8.20;99.90
52107;DHT22;38105;52.968;5.974;2024-02-14T02:57:53;8.40;99.90
52107;DHT22;38105;52.968;5.974;2024-02-14T03:00:19;7.80;99.90
52107;DHT22;38105;52.968;5.974;2024-02-14T03:02:46;8.50;99.90
52107;DHT22;38105;52.968;5.974;2024-02-14T03:05:12;8.50;99.90
52107;DHT22;38105;52.968;5.974;2024-02-14T03:07:44;8.50;99.90
52107;DHT22;38105;52.968;5.974;2024-02-14T03:10:11;8.40;99.90
52107;DHT22;38105;52.968;5.974;2024-02-14T03:12:38;8.80;99.90
52107;DHT22;38105;52.968;5.974;2024-02-14T03:15:04;7.90;99.90
52107;DHT22;38105;52.968;5.974;2024-02-14T03:17:31;8.10;99.90
52107;DHT22;38105;52.968;5.974;2024-02-14T03:19:57;8.50;99.90
52107;DHT22;38105;52.968;5.974;2024-02-14T03:22:22;8.50;99.90
52107;DHT22;38105;52.968;5.974;2024-02-14T03:24:48;8.90;99.90
52107;DHT22;38105;52.968;5.974;2024-02-14T03:27:14;8.10;99.90
52107;DHT22;38105;52.968;5.974;2024-02-14T03:29:39;9.00;99.90
52107;DHT22;38105;52.968;5.974;2024-02-14T03:32:09;8.20;99.90
52107;DHT22;38105;52.968;5.974;2024-02-14T03:34:35;8.90;99.90
52107;DHT22;38105;52.968;5.974;2024-02-14T03:37:01;8.90;99.90
52107;DHT22;38105;52.968;5.974;2024-02-14T03:39:30;8.10;99.90
52107;DHT22;38105;52.968;5.974;2024-02-14T03:41:56;8.10;99.90
52107;DHT22;38105;52.968;5.974;2024-02-14T03:44:22;9.00;99.90
52107;DHT22;38105;52.968;5.974;2024-02-14T03:46:51;8.70;99.90
52107;DHT22;38105;52.968;5.974;2024-02-14T03:49:23;8.20;99.90
52107;DHT22;38105;52.968;5.974;2024-02-14T03:51:51;8.20;99.90
52107;DHT22;38105;52.968;5.974;2024-02-14T03:54:20;8.80;99.90
52107;DHT22;38105;52.968;5.974;2024-02-14T03:56:46;9.00;99.90
52107;DHT22;38105;52.968;5.974;2024-02-14T03:59:11;9.10;99.90
52107;DHT22;38105;52.968;5.974;2024-02-14T04:01:37;8.40;99.90
52107;DHT22;38105;52.968;5.974;2024-02-14T04:04:06;8.50;99.90
52107;DHT22;38105;52.968;5.974;2024-02-14T04:06:31;9.00;99.90
52107;DHT22;38105;52.968;5.974;2024-02-14T04:08:58;8.40;99.90
52107;DHT22;38105;52.968;5.974;2024-02-14T04:11:27;8.80;99.90
52107;DHT22;38105;52.968;5.974;2024-02-14T04:13:52;9.10;99.90
52107;DHT22;38105;52.968;5.974;2024-02-14T04:16:21;8.30;99.90
52107;DHT22;38105;52.968;5.974;2024-02-14T04:18:47;8.30;99.90
52107;DHT22;38105;52.968;5.974;2024-02-14T04:21:12;9.20;99.90
52107;DHT22;38105;52.968;5.974;2024-02-14T04:23:38;8.80;99.90
52107;DHT22;38105;52.968;5.974;2024-02-14T04:26:05;9.20;99.90
52107;DHT22;38105;52.968;5.974;2024-02-14T04:28:31;8.70;99.90
52107;DHT22;38105;52.968;5.974;2024-02-14T04:30:57;8.40;99.90
52107;DHT22;38105;52.968;5.974;2024-02-14T04:33:23;8.50;99.90
52107;DHT22;38105;52.968;5.974;2024-02-14T04:35:51;8.80;99.90
52107;DHT22;38105;52.968;5.974;2024-02-14T04:38:17;9.20;99.90
52107;DHT22;38105;52.968;5.974;2024-02-14T04:40:45;8.40;99.90
52107;DHT22;38105;52.968;5.974;2024-02-14T04:43:10;8.40;99.90
52107;DHT22;38105;52.968;5.974;2024-02-14T04:45:36;8.60;99.90
52107;DHT22;38105;52.968;5.974;2024-02-14T04:48:02;8.40;99.90
52107;DHT22;38105;52.968;5.974;2024-02-14T04:50:28;8.50;99.90
52107;DHT22;38105;52.968;5.974;2024-02-14T04:52:56;8.80;99.90
52107;DHT22;38105;52.968;5.974;2024-02-14T04:55:22;9.00;99.90
52107;DHT22;38105;52.968;5.974;2024-02-14T04:57:48;9.20;99.90
52107;DHT22;38105;52.968;5.974;2024-02-14T05:00:14;8.60;99.90
52107;DHT22;38105;52.968;5.974;2024-02-14T05:02:40;8.90;99.90
52107;DHT22;38105;52.968;5.974;2024-02-14T05:05:06;8.50;99.90
52107;DHT22;38105;52.968;5.974;2024-02-14T05:07:33;8.90;99.90
52107;DHT22;38105;52.968;5.974;2024-02-14T05:09:59;9.30;99.90
52107;DHT22;38105;52.968;5.974;2024-02-14T05:12:26;9.40;99.90
52107;DHT22;38105;52.968;5.974;2024-02-14T05:14:54;8.60;99.90
52107;DHT22;38105;52.968;5.974;2024-02-14T05:17:20;8.50;99.90
52107;DHT22;38105;52.968;5.974;2024-02-14T05:19:46;9.10;99.90
52107;DHT22;38105;52.968;5.974;2024-02-14T05:22:11;8.70;99.90
52107;DHT22;38105;52.968;5.974;2024-02-14T05:24:37;9.10;99.90
52107;DHT22;38105;52.968;5.974;2024-02-14T05:27:06;9.10;99.90
52107;DHT22;38105;52.968;5.974;2024-02-14T05:29:32;9.10;99.90
52107;DHT22;38105;52.968;5.974;2024-02-14T05:31:58;9.20;99.90
52107;DHT22;38105;52.968;5.974;2024-02-14T05:34:24;8.50;99.90
52107;DHT22;38105;52.968;5.974;2024-02-14T05:36:50;8.80;99.90
52107;DHT22;38105;52.968;5.974;2024-02-14T05:39:17;8.50;99.90
52107;DHT22;38105;52.968;5.974;2024-02-14T05:41:42;9.00;99.90
52107;DHT22;38105;52.968;5.974;2024-02-14T05:44:11;8.90;99.90
52107;DHT22;38105;52.968;5.974;2024-02-14T05:46:38;9.10;99.90
52107;DHT22;38105;52.968;5.974;2024-02-14T05:49:04;8.70;99.90
52107;DHT22;38105;52.968;5.974;2024-02-14T05:51:29;9.40;99.90
52107;DHT22;38105;52.968;5.974;2024-02-14T05:53:55;9.00;99.90
52107;DHT22;38105;52.968;5.974;2024-02-14T05:56:20;9.40;99.90
52107;DHT22;38105;52.968;5.974;2024-02-14T05:58:46;9.40;99.90
52107;DHT22;38105;52.968;5.974;2024-02-14T06:01:11;8.80;99.90
52107;DHT22;38105;52.968;5.974;2024-02-14T06:03:37;8.70;99.90
52107;DHT22;38105;52.968;5.974;2024-02-14T06:06:03;9.50;99.90
52107;DHT22;38105;52.968;5.974;2024-02-14T06:08:31;8.60;99.90
52107;DHT22;38105;52.968;5.974;2024-02-14T06:10:58;8.90;99.90
52107;DHT22;38105;52.968;5.974;2024-02-14T06:13:23;9.30;99.90
52107;DHT22;38105;52.968;5.974;2024-02-14T06:15:49;9.20;99.90
52107;DHT22;38105;52.968;5.974;2024-02-14T06:18:14;9.20;99.90
52107;DHT22;38105;52.968;5.974;2024-02-14T06:20:41;8.70;99.90
52107;DHT22;38105;52.968;5.974;2024-02-14T06:23:10;8.80;99.90
52107;DHT22;38105;52.968;5.974;2024-02-14T06:25:35;8.60;99.90
52107;DHT22;38105;52.968;5.974;2024-02-14T06:28:04;8.80;99.90
52107;DHT22;38105;52.968;5.974;2024-02-14T06:30:30;8.50;99.90
52107;DHT22;38105;52.968;5.974;2024-02-14T06:32:55;9.00;99.90
52107;DHT22;38105;52.968;5.974;2024-02-14T06:35:26;9.30;99.90
52107;DHT22;38105;52.968;5.974;2024-02-14T06:37:51;9.20;99.90
52107;DHT22;38105;52.968;5.974;2024-02-14T06:40:17;8.80;99.90
52107;DHT22;38105;52.968;5.974;2024-02-14T06:42:46;9.40;99.90
52107;DHT22;38105;52.968;5.974;2024-02-14T06:45:13;9.50;99.90
52107;DHT22;38105;52.968;5.974;2024-02-14T06:47:41;8.60;99.90
52107;DHT22;38105;52.968;5.974;2024-02-14T06:50:07;9.60;99.90
52107;DHT22;38105;52.968;5.974;2024-02-14T06:52:33;8.90;99.90
52107;DHT22;38105;52.968;5.974;2024-02-14T06:54:59;9.40;99.90
52107;DHT22;38105;52.968;5.974;2024-02-14T06:57:35;8.90;99.90
52107;DHT22;38105;52.968;5.974;2024-02-14T07:00:03;8.60;99.90
52107;DHT22;38105;52.968;5.974;2024-02-14T07:02:31;8.60;99.90
52107;DHT22;38105;52.968;5.974;2024-02-14T07:04:57;9.60;99.90
52107;DHT22;38105;52.968;5.974;2024-02-14T07:07:25;8.60;99.90
52107;DHT22;38105;52.968;5.974;2024-02-14T07:09:51;8.80;99.90
52107;DHT22;38105;52.968;5.974;2024-02-14T07:12:17;9.40;99.90
52107;DHT22;38105;52.968;5.974;2024-02-14T07:14:42;9.30;99.90
52107;DHT22;38105;52.968;5.974;2024-02-14T07:17:09;9.10;99.90
52107;DHT22;38105;52.968;5.974;2024-02-14T07:19:34;9.60;99.90
52107;DHT22;38105;52.968;5.974;2024-02-14T07:22:00;8.80;99.90
52107;DHT22;38105;52.968;5.974;2024-02-14T07:24:26;9.60;99.90
52107;DHT22;38105;52.968;5.974;2024-02-14T07:26:51;9.10;99.90
52107;DHT22;38105;52.968;5.974;2024-02-14T07:29:17;8.80;99.90
52107;DHT22;38105;52.968;5.974;2024-02-14T07:31:45;9.10;99.90
52107;DHT22;38105;52.968;5.974;2024-02-14T07:34:11;8.80;99.90
52107;DHT22;38105;52.968;5.974;2024-02-14T07:36:37;9.60;99.90
52107;DHT22;38105;52.968;5.974;2024-02-14T07:39:03;8.80;99.90
52107;DHT22;38105;52.968;5.974;2024-02-14T07:41:29;9.80;99.90
52107;DHT22;38105;52.968;5.974;2024-02-14T07:43:54;9.50;99.90
52107;DHT22;38105;52.968;5.974;2024-02-14T07:46:22;9.80;99.90
52107;DHT22;38105;52.968;5.974;2024-02-14T07:48:49;9.70;99.90
52107;DHT22;38105;52.968;5.974;2024-02-14T07:51:14;9.50;99.90
52107;DHT22;38105;52.968;5.974;2024-02-14T07:53:40;8.80;99.90
52107;DHT22;38105;52.968;5.974;2024-02-14T07:56:06;8.90;99.90
52107;DHT22;38105;52.968;5.974;2024-02-14T07:58:31;8.80;99.90
52107;DHT22;38105;52.968;5.974;2024-02-14T08:00:58;9.60;99.90
52107;DHT22;38105;52.968;5.974;2024-02-14T08:03:24;9.50;99.90
52107;DHT22;38105;52.968;5.974;2024-02-14T08:05:50;9.00;99.90
52107;DHT22;38105;52.968;5.974;2024-02-14T08:08:16;9.50;99.90
52107;DHT22;38105;52.968;5.974;2024-02-14T08:10:42;9.90;99.90
52107;DHT22;38105;52.968;5.974;2024-02-14T08:13:10;9.10;99.90
52107;DHT22;38105;52.968;5.974;2024-02-14T08:15:40;8.90;99.90
52107;DHT22;38105;52.968;5.974;2024-02-14T08:18:06;9.80;99.90
52107;DHT22;38105;52.968;5.974;2024-02-14T08:20:31;9.90;99.90
52107;DHT22;38105;52.968;5.974;2024-02-14T08:22:57;9.40;99.90
52107;DHT22;38105;52.968;5.974;2024-02-14T08:25:22;9.70;99.90
52107;DHT22;38105;52.968;5.974;2024-02-14T08:27:48;10.00;99.90
52107;DHT22;38105;52.968;5.974;2024-02-14T08:30:14;9.50;99.90
52107;DHT22;38105;52.968;5.974;2024-02-14T08:32:40;9.20;99.90
52107;DHT22;38105;52.968;5.974;2024-02-14T08:35:09;10.10;99.90
52107;DHT22;38105;52.968;5.974;2024-02-14T08:37:35;9.10;99.90
52107;DHT22;38105;52.968;5.974;2024-02-14T08:40:02;10.00;99.90
52107;DHT22;38105;52.968;5.974;2024-02-14T08:42:33;10.00;99.90
52107;DHT22;38105;52.968;5.974;2024-02-14T08:45:00;9.20;99.90
52107;DHT22;38105;52.968;5.974;2024-02-14T08:47:25;9.40;99.90
52107;DHT22;38105;52.968;5.974;2024-02-14T08:49:51;9.20;99.90
52107;DHT22;38105;52.968;5.974;2024-02-14T08:52:17;9.20;99.90
52107;DHT22;38105;52.968;5.974;2024-02-14T08:54:44;10.20;99.90
52107;DHT22;38105;52.968;5.974;2024-02-14T08:57:09;9.70;99.90
52107;DHT22;38105;52.968;5.974;2024-02-14T08:59:35;9.40;99.90
52107;DHT22;38105;52.968;5.974;2024-02-14T09:02:01;10.30;99.90
52107;DHT22;38105;52.968;5.974;2024-02-14T09:04:27;10.30;99.90
52107;DHT22;38105;52.968;5.974;2024-02-14T09:06:53;10.30;99.90
52107;DHT22;38105;52.968;5.974;2024-02-14T09:09:19;9.40;99.90
52107;DHT22;38105;52.968;5.974;2024-02-14T09:11:47;9.50;99.90
52107;DHT22;38105;52.968;5.974;2024-02-14T09:14:13;9.90;99.90
52107;DHT22;38105;52.968;5.974;2024-02-14T09:16:39;10.30;99.90
52107;DHT22;38105;52.968;5.974;2024-02-14T09:19:05;10.40;99.90
52107;DHT22;38105;52.968;5.974;2024-02-14T09:21:35;9.70;99.90
52107;DHT22;38105;52.968;5.974;2024-02-14T09:24:01;10.60;99.90
52107;DHT22;38105;52.968;5.974;2024-02-14T09:26:28;9.90;99.90
52107;DHT22;38105;52.968;5.974;2024-02-14T09:28:54;10.60;99.90
52107;DHT22;38105;52.968;5.974;2024-02-14T09:31:20;10.50;99.90
52107;DHT22;38105;52.968;5.974;2024-02-14T09:33:47;9.80;99.90
52107;DHT22;38105;52.968;5.974;2024-02-14T09:36:13;10.70;99.90
52107;DHT22;38105;52.968;5.974;2024-02-14T09:38:40;9.70;99.90
52107;DHT22;38105;52.968;5.974;2024-02-14T09:41:11;10.10;99.90
52107;DHT22;38105;52.968;5.974;2024-02-14T09:43:40;9.70;99.90
52107;DHT22;38105;52.968;5.974;2024-02-14T09:46:08;9.70;99.90
52107;DHT22;38105;52.968;5.974;2024-02-14T09:48:34;9.90;99.90
52107;DHT22;38105;52.968;5.974;2024-02-14T09:51:00;10.80;99.90
52107;DHT22;38105;52.968;5.974;2024-02-14T09:53:25;9.90;99.90
52107;DHT22;38105;52.968;5.974;2024-02-14T09:55:51;10.00;99.90
52107;DHT22;38105;52.968;5.974;2024-02-14T09:58:18;9.90;99.90
52107;DHT22;38105;52.968;5.974;2024-02-14T10:00:43;9.90;99.90
52107;DHT22;38105;52.968;5.974;2024-02-14T10:03:09;10.70;99.90
52107;DHT22;38105;52.968;5.974;2024-02-14T10:05:36;10.90;99.90
52107;DHT22;38105;52.968;5.974;2024-02-14T10:08:02;10.90;99.90
52107;DHT22;38105;52.968;5.974;2024-02-14T10:10:28;11.00;99.90
52107;DHT22;38105;52.968;5.974;2024-02-14T10:12:54;10.20;99.90
52107;DHT22;38105;52.968;5.974;2024-02-14T10:15:21;10.00;99.90
52107;DHT22;38105;52.968;5.974;2024-02-14T10:17:47;10.50;99.90
52107;DHT22;38105;52.968;5.974;2024-02-14T10:20:16;10.60;99.90
52107;DHT22;38105;52.968;5.974;2024-02-14T10:22:45;10.80;99.90
52107;DHT22;38105;52.968;5.974;2024-02-14T10:25:11;9.90;99.90
52107;DHT22;38105;52.968;5.974;2024-02-14T10:27:37;11.20;99.90
52107;DHT22;38105;52.968;5.974;2024-02-14T10:30:06;10.30;99.90
52107;DHT22;38105;52.968;5.974;2024-02-14T10:32:36;11.20;99.90
52107;DHT22;38105;52.968;5.974;2024-02-14T10:35:08;10.60;99.90
52107;DHT22;38105;52.968;5.974;2024-02-14T10:37:34;10.20;99.90
52107;DHT22;38105;52.968;5.974;2024-02-14T10:40:00;10.20;99.90
52107;DHT22;38105;52.968;5.974;2024-02-14T10:42:27;11.10;99.90
52107;DHT22;38105;52.968;5.974;2024-02-14T10:44:54;10.30;99.90
52107;DHT22;38105;52.968;5.974;2024-02-14T10:47:20;11.10;99.90
52107;DHT22;38105;52.968;5.974;2024-02-14T10:49:50;11.20;99.90
52107;DHT22;38105;52.968;5.974;2024-02-14T10:52:17;11.00;99.90
52107;DHT22;38105;52.968;5.974;2024-02-14T10:54:47;10.50;99.90
52107;DHT22;38105;52.968;5.974;2024-02-14T10:57:16;10.20;99.90
52107;DHT22;38105;52.968;5.974;2024-02-14T10:59:43;10.10;99.90
52107;DHT22;38105;52.968;5.974;2024-02-14T11:02:10;10.10;99.90
52107;DHT22;38105;52.968;5.974;2024-02-14T11:04:36;10.90;99.90
52107;DHT22;38105;52.968;5.974;2024-02-14T11:07:02;10.40;99.90
52107;DHT22;38105;52.968;5.974;2024-02-14T11:09:32;11.20;99.90
52107;DHT22;38105;52.968;5.974;2024-02-14T11:12:01;10.50;99.90
52107;DHT22;38105;52.968;5.974;2024-02-14T11:14:36;11.00;99.90
52107;DHT22;38105;52.968;5.974;2024-02-14T11:17:08;10.50;99.90
52107;DHT22;38105;52.968;5.974;2024-02-14T11:19:37;10.50;99.90
52107;DHT22;38105;52.968;5.974;2024-02-14T11:22:12;10.40;99.90
52107;DHT22;38105;52.968;5.974;2024-02-14T11:24:38;11.40;99.90
52107;DHT22;38105;52.968;5.974;2024-02-14T11:27:09;11.30;99.90
52107;DHT22;38105;52.968;5.974;2024-02-14T11:29:34;11.40;99.90
52107;DHT22;38105;52.968;5.974;2024-02-14T11:32:00;11.40;99.90
52107;DHT22;38105;52.968;5.974;2024-02-14T11:34:27;10.50;99.90
52107;DHT22;38105;52.968;5.974;2024-02-14T11:36:53;11.60;99.90
52107;DHT22;38105;52.968;5.974;2024-02-14T11:39:19;10.50;99.90
52107;DHT22;38105;52.968;5.974;2024-02-14T11:41:45;10.60;99.90
52107;DHT22;38105;52.968;5.974;2024-02-14T11:44:11;11.40;99.90
52107;DHT22;38105;52.968;5.974;2024-02-14T11:46:40;11.50;99.90
52107;DHT22;38105;52.968;5.974;2024-02-14T11:49:07;10.70;99.90
52107;DHT22;38105;52.968;5.974;2024-02-14T11:51:34;11.60;99.90
52107;DHT22;38105;52.968;5.974;2024-02-14T11:54:04;10.90;99.90
52107;DHT22;38105;52.968;5.974;2024-02-14T11:56:32;10.80;99.90
52107;DHT22;38105;52.968;5.974;2024-02-14T11:59:01;11.30;99.90
52107;DHT22;38105;52.968;5.974;2024-02-14T12:01:30;10.80;99.90
52107;DHT22;38105;52.968;5.974;2024-02-14T12:03:57;11.40;99.90
52107;DHT22;38105;52.968;5.974;2024-02-14T12:06:23;10.80;99.90
52107;DHT22;38105;52.968;5.974;2024-02-14T12:08:49;10.70;99.90
52107;DHT22;38105;52.968;5.974;2024-02-14T12:11:18;11.70;99.90
52107;DHT22;38105;52.968;5.974;2024-02-14T12:13:43;10.70;99.90
52107;DHT22;38105;52.968;5.974;2024-02-14T12:16:14;10.80;99.90
52107;DHT22;38105;52.968;5.974;2024-02-14T12:18:41;11.60;99.90
52107;DHT22;38105;52.968;5.974;2024-02-14T12:21:07;10.70;99.90
52107;DHT22;38105;52.968;5.974;2024-02-14T12:23:35;11.70;99.90
52107;DHT22;38105;52.968;5.974;2024-02-14T12:26:02;11.80;99.90
52107;DHT22;38105;52.968;5.974;2024-02-14T12:28:29;11.70;99.90
52107;DHT22;38105;52.968;5.974;2024-02-14T12:30:56;10.90;99.90
52107;DHT22;38105;52.968;5.974;2024-02-14T12:33:22;11.40;99.90
52107;DHT22;38105;52.968;5.974;2024-02-14T12:35:49;11.10;99.90
52107;DHT22;38105;52.968;5.974;2024-02-14T12:38:16;11.70;99.90
52107;DHT22;38105;52.968;5.974;2024-02-14T12:40:41;11.90;99.90
52107;DHT22;38105;52.968;5.974;2024-02-14T12:43:16;10.80;99.90
52107;DHT22;38105;52.968;5.974;2024-02-14T12:45:42;11.00;99.90
52107;DHT22;38105;52.968;5.974;2024-02-14T12:48:09;11.50;99.90
52107;DHT22;38105;52.968;5.974;2024-02-14T12:50:35;11.50;99.90
52107;DHT22;38105;52.968;5.974;2024-02-14T12:53:02;11.30;99.90
52107;DHT22;38105;52.968;5.974;2024-02-14T12:55:28;10.70;99.90
52107;DHT22;38105;52.968;5.974;2024-02-14T12:57:54;11.00;99.90
52107;DHT22;38105;52.968;5.974;2024-02-14T13:00:20;10.70;99.90
52107;DHT22;38105;52.968;5.974;2024-02-14T13:02:47;11.50;99.90
52107;DHT22;38105;52.968;5.974;2024-02-14T13:05:13;11.50;99.90
52107;DHT22;38105;52.968;5.974;2024-02-14T13:07:40;11.40;99.90
52107;DHT22;38105;52.968;5.974;2024-02-14T13:10:05;11.50;99.90
52107;DHT22;38105;52.968;5.974;2024-02-14T13:12:33;11.40;99.90
52107;DHT22;38105;52.968;5.974;2024-02-14T13:14:59;11.00;99.90
52107;DHT22;38105;52.968;5.974;2024-02-14T13:17:25;11.30;99.90
52107;DHT22;38105;52.968;5.974;2024-02-14T13:19:52;11.20;99.90
52107;DHT22;38105;52.968;5.974;2024-02-14T13:22:18;10.80;99.90
52107;DHT22;38105;52.968;5.974;2024-02-14T13:24:44;11.50;99.90
52107;DHT22;38105;52.968;5.974;2024-02-14T13:27:13;11.70;99.90
52107;DHT22;38105;52.968;5.974;2024-02-14T13:29:40;11.60;99.90
52107;DHT22;38105;52.968;5.974;2024-02-14T13:32:06;11.10;99.90
52107;DHT22;38105;52.968;5.974;2024-02-14T13:34:34;11.50;99.90
52107;DHT22;38105;52.968;5.974;2024-02-14T13:37:00;10.90;99.90
52107;DHT22;38105;52.968;5.974;2024-02-14T13:39:26;11.90;99.90
52107;DHT22;38105;52.968;5.974;2024-02-14T13:41:54;11.10;99.90
52107;DHT22;38105;52.968;5.974;2024-02-14T13:44:23;11.90;99.90
52107;DHT22;38105;52.968;5.974;2024-02-14T13:46:52;11.40;99.90
52107;DHT22;38105;52.968;5.974;2024-02-14T13:49:19;12.00;99.90
52107;DHT22;38105;52.968;5.974;2024-02-14T13:51:51;11.00;99.90
52107;DHT22;38105;52.968;5.974;2024-02-14T13:54:17;11.40;99.90
52107;DHT22;38105;52.968;5.974;2024-02-14T13:56:43;12.00;99.90
52107;DHT22;38105;52.968;5.974;2024-02-14T13:59:09;11.20;99.90
52107;DHT22;38105;52.968;5.974;2024-02-14T14:01:36;11.70;99.90
52107;DHT22;38105;52.968;5.974;2024-02-14T14:04:02;11.50;99.90
52107;DHT22;38105;52.968;5.974;2024-02-14T14:06:32;12.00;99.90
52107;DHT22;38105;52.968;5.974;2024-02-14T14:09:01;11.70;99.90
52107;DHT22;38105;52.968;5.974;2024-02-14T14:11:28;12.00;99.90
52107;DHT22;38105;52.968;5.974;2024-02-14T14:13:54;12.00;99.90
52107;DHT22;38105;52.968;5.974;2024-02-14T14:16:19;11.80;99.90
52107;DHT22;38105;52.968;5.974;2024-02-14T14:18:49;11.70;99.90
52107;DHT22;38105;52.968;5.974;2024-02-14T14:21:15;11.00;99.90
52107;DHT22;38105;52.968;5.974;2024-02-14T14:23:41;12.00;99.90
52107;DHT22;38105;52.968;5.974;2024-02-14T14:26:09;11.70;99.90
52107;DHT22;38105;52.968;5.974;2024-02-14T14:28:35;11.30;99.90
52107;DHT22;38105;52.968;5.974;2024-02-14T14:31:00;12.00;99.90
52107;DHT22;38105;52.968;5.974;2024-02-14T14:33:27;11.30;99.90
52107;DHT22;38105;52.968;5.974;2024-02-14T14:35:53;11.00;99.90
52107;DHT22;38105;52.968;5.974;2024-02-14T14:38:20;12.00;99.90
52107;DHT22;38105;52.968;5.974;2024-02-14T14:40:46;11.50;99.90
52107;DHT22;38105;52.968;5.974;2024-02-14T14:43:22;11.90;99.90
52107;DHT22;38105;52.968;5.974;2024-02-14T14:45:48;11.90;99.90
52107;DHT22;38105;52.968;5.974;2024-02-14T14:48:14;11.10;99.90
52107;DHT22;38105;52.968;5.974;2024-02-14T14:50:40;11.30;99.90
52107;DHT22;38105;52.968;5.974;2024-02-14T14:53:07;11.00;99.90
52107;DHT22;38105;52.968;5.974;2024-02-14T14:58:17;11.10;99.90
52107;DHT22;38105;52.968;5.974;2024-02-14T15:00:43;11.10;99.90
52107;DHT22;38105;52.968;5.974;2024-02-14T15:03:12;11.80;99.90
52107;DHT22;38105;52.968;5.974;2024-02-14T15:05:37;11.90;99.90
52107;DHT22;38105;52.968;5.974;2024-02-14T15:08:04;10.90;99.90
52107;DHT22;38105;52.968;5.974;2024-02-14T15:10:35;11.40;99.90
52107;DHT22;38105;52.968;5.974;2024-02-14T15:13:06;11.80;99.90
52107;DHT22;38105;52.968;5.974;2024-02-14T15:15:34;10.70;99.90
52107;DHT22;38105;52.968;5.974;2024-02-14T15:18:00;10.80;99.90
52107;DHT22;38105;52.968;5.974;2024-02-14T15:20:25;11.80;99.90
52107;DHT22;38105;52.968;5.974;2024-02-14T15:22:51;11.80;99.90
52107;DHT22;38105;52.968;5.974;2024-02-14T15:25:16;11.20;99.90
52107;DHT22;38105;52.968;5.974;2024-02-14T15:27:42;11.60;99.90
52107;DHT22;38105;52.968;5.974;2024-02-14T15:30:25;10.70;99.90
52107;DHT22;38105;52.968;5.974;2024-02-14T15:33:10;11.70;99.90
52107;DHT22;38105;52.968;5.974;2024-02-14T15:35:53;11.60;99.90
52107;DHT22;38105;52.968;5.974;2024-02-14T15:38:19;11.40;99.90
52107;DHT22;38105;52.968;5.974;2024-02-14T15:40:46;11.20;99.90